ULAA

Talagi Airport

Archangelsk, Russian Federation
TAF ULAA 211700Z 2118/2218 30005MPS 9999 BKN012 TEMPO 2118/2204 VRB01MPS 2100 BR BKN007 BECMG 2204/2206 20004MPS SCT020 BECMG 2210/2212 16005MPS
Issued Valid From Valid To
Jun-21 @ 17:00 UTC
(an hour ago)
Jun-21 @ 18:00 UTC
(9 minutes ago)
Jun-22 @ 18:00 UTC
(in 24 hours)
Jun-21 @ 18:00 to Jun-22 @ 04:00
TAF ULAA 211700Z 2118/2218 30005MPS 9999 BKN012
Wind Visibility Clouds
300° at 10 knots 10,000+ meters
  • Broken at 1,200' AGL
Temporary Jun-21 @ 18:00 to Jun-22 @ 04:00
TEMPO 2118/2204 VRB01MPS 2100 BR BKN007
Wind Visibility Clouds Conditions
Variable at 2 knots 2,092 meters
  • Broken at 700' AGL
  • Mist
Becoming Jun-22 @ 04:00 to Jun-22 @ 10:00
BECMG 2204/2206 20004MPS SCT020
Wind Visibility Clouds
200° at 8 knots 10,000+ meters
  • Scattered at 2,000' AGL
Becoming Jun-22 @ 10:00 to Jun-22 @ 18:00
BECMG 2210/2212 16005MPS
Wind Visibility Clouds
160° at 10 knots 10,000+ meters
  • Scattered at 2,000' AGL
TAF ULAA 211700Z 2118/2218 30005MPS 9999 BKN012 TEMPO 2118/2204 VRB01MPS 2100 BR BKN007 BECMG 2204/2206 20004MPS SCT020 BECMG 2210/2212 16005MPS
Issued Jun-21 @ 17:00 UTC
(an hour ago)
Valid From Jun-21 @ 18:00 UTC
(9 minutes ago)
Valid To Jun-22 @ 18:00 UTC
(in 24 hours)
Jun-21 @ 18:00 - Jun-22 @ 04:00
Wind Visibility
300° at 10 knots 10,000+ meters
Clouds
  • Broken at 1,200' AGL
Temporary Jun-21 @ 18:00 - Jun-22 @ 04:00
Wind Visibility
Variable at 2 knots 2,092 meters
Clouds
  • Broken at 700' AGL
Conditions
  • Mist
Becoming Jun-22 @ 04:00 - Jun-22 @ 10:00
Wind Visibility
200° at 8 knots 10,000+ meters
Clouds
  • Scattered at 2,000' AGL
Becoming Jun-22 @ 10:00 - Jun-22 @ 18:00
Wind Visibility
160° at 10 knots 10,000+ meters
Clouds
  • Scattered at 2,000' AGL